sensor_id;sensor_type;location;lat;lon;timestamp;temperature;humidity
40368;DHT22;26075;43.320;21.920;2023-02-28T00:00:31;9.80;61.80
40368;DHT22;26075;43.320;21.920;2023-02-28T00:10:33;9.80;58.10
40368;DHT22;26075;43.320;21.920;2023-02-28T00:15:34;9.90;62.00
40368;DHT22;26075;43.320;21.920;2023-02-28T00:20:34;9.90;62.30
40368;DHT22;26075;43.320;21.920;2023-02-28T00:37:11;9.80;58.20
40368;DHT22;26075;43.320;21.920;2023-02-28T00:42:26;9.60;61.70
40368;DHT22;26075;43.320;21.920;2023-02-28T00:47:28;9.70;62.60
40368;DHT22;26075;43.320;21.920;2023-02-28T00:52:45;9.50;62.40
40368;DHT22;26075;43.320;21.920;2023-02-28T00:57:46;9.60;62.20
40368;DHT22;26075;43.320;21.920;2023-02-28T01:03:24;9.80;61.90
40368;DHT22;26075;43.320;21.920;2023-02-28T01:20:03;9.80;58.60
40368;DHT22;26075;43.320;21.920;2023-02-28T01:25:04;9.70;61.50
40368;DHT22;26075;43.320;21.920;2023-02-28T01:30:07;9.70;61.00
40368;DHT22;26075;43.320;21.920;2023-02-28T01:35:08;9.50;81.50
40368;DHT22;26075;43.320;21.920;2023-02-28T01:40:09;9.60;81.40
40368;DHT22;26075;43.320;21.920;2023-02-28T01:51:43;9.70;58.00
40368;DHT22;26075;43.320;21.920;2023-02-28T01:57:00;9.50;60.80
40368;DHT22;26075;43.320;21.920;2023-02-28T02:02:02;9.30;61.70
40368;DHT22;26075;43.320;21.920;2023-02-28T02:45:42;9.10;62.50
40368;DHT22;26075;43.320;21.920;2023-02-28T02:50:53;8.80;82.90
40368;DHT22;26075;43.320;21.920;2023-02-28T03:01:14;9.50;59.40
40368;DHT22;26075;43.320;21.920;2023-02-28T03:06:16;9.00;62.70
40368;DHT22;26075;43.320;21.920;2023-02-28T03:11:17;9.00;62.40
40368;DHT22;26075;43.320;21.920;2023-02-28T03:28:08;9.30;62.10
40368;DHT22;26075;43.320;21.920;2023-02-28T03:33:17;9.40;61.00
40368;DHT22;26075;43.320;21.920;2023-02-28T03:38:38;9.50;82.20
40368;DHT22;26075;43.320;21.920;2023-02-28T03:43:43;9.50;58.20
40368;DHT22;26075;43.320;21.920;2023-02-28T03:49:31;9.40;61.50
40368;DHT22;26075;43.320;21.920;2023-02-28T03:54:17;9.50;58.40
40368;DHT22;26075;43.320;21.920;2023-02-28T03:59:32;9.50;82.30
40368;DHT22;26075;43.320;21.920;2023-02-28T04:04:34;9.60;82.10
40368;DHT22;26075;43.320;21.920;2023-02-28T04:09:35;9.50;62.30
40368;DHT22;26075;43.320;21.920;2023-02-28T04:14:35;9.30;62.00
40368;DHT22;26075;43.320;21.920;2023-02-28T04:19:36;9.50;62.20
40368;DHT22;26075;43.320;21.920;2023-02-28T04:35:38;9.10;58.10
40368;DHT22;26075;43.320;21.920;2023-02-28T04:46:35;9.70;81.90
40368;DHT22;26075;43.320;21.920;2023-02-28T04:51:36;9.50;61.90
40368;DHT22;26075;43.320;21.920;2023-02-28T04:56:37;9.30;62.10
40368;DHT22;26075;43.320;21.920;2023-02-28T05:02:13;9.30;62.30
40368;DHT22;26075;43.320;21.920;2023-02-28T05:13:12;9.30;58.80
40368;DHT22;26075;43.320;21.920;2023-02-28T05:18:13;9.30;82.00
40368;DHT22;26075;43.320;21.920;2023-02-28T05:23:21;9.30;62.20
40368;DHT22;26075;43.320;21.920;2023-02-28T05:28:23;9.40;61.90
40368;DHT22;26075;43.320;21.920;2023-02-28T05:39:20;9.60;58.80
40368;DHT22;26075;43.320;21.920;2023-02-28T05:44:25;9.50;82.00
40368;DHT22;26075;43.320;21.920;2023-02-28T05:49:27;9.50;62.70
40368;DHT22;26075;43.320;21.920;2023-02-28T05:54:28;9.30;62.00
40368;DHT22;26075;43.320;21.920;2023-02-28T05:59:41;9.70;84.80
40368;DHT22;26075;43.320;21.920;2023-02-28T06:04:58;10.10;65.50
40368;DHT22;26075;43.320;21.920;2023-02-28T06:09:59;10.90;62.30
40368;DHT22;26075;43.320;21.920;2023-02-28T06:14:59;10.30;81.40
40368;DHT22;26075;43.320;21.920;2023-02-28T06:20:00;10.40;61.80
40368;DHT22;26075;43.320;21.920;2023-02-28T06:25:01;10.30;62.30
40368;DHT22;26075;43.320;21.920;2023-02-28T06:35:04;10.40;58.60
40368;DHT22;26075;43.320;21.920;2023-02-28T06:40:05;10.10;82.60
40368;DHT22;26075;43.320;21.920;2023-02-28T06:45:07;10.00;61.00
40368;DHT22;26075;43.320;21.920;2023-02-28T06:50:11;9.90;61.90
40368;DHT22;26075;43.320;21.920;2023-02-28T06:55:12;9.90;62.10
40368;DHT22;26075;43.320;21.920;2023-02-28T07:00:13;9.90;62.60
40368;DHT22;26075;43.320;21.920;2023-02-28T07:05:14;10.00;60.70
40368;DHT22;26075;43.320;21.920;2023-02-28T07:10:15;9.80;82.20
40368;DHT22;26075;43.320;21.920;2023-02-28T07:15:17;9.90;62.30
40368;DHT22;26075;43.320;21.920;2023-02-28T07:20:24;9.90;62.60
40368;DHT22;26075;43.320;21.920;2023-02-28T07:25:28;10.10;81.80
40368;DHT22;26075;43.320;21.920;2023-02-28T07:30:42;10.30;63.10
40368;DHT22;26075;43.320;21.920;2023-02-28T07:35:43;10.00;81.40
40368;DHT22;26075;43.320;21.920;2023-02-28T07:45:52;9.90;57.70
40368;DHT22;26075;43.320;21.920;2023-02-28T07:50:56;10.20;82.80
40368;DHT22;26075;43.320;21.920;2023-02-28T07:56:05;9.90;62.30
40368;DHT22;26075;43.320;21.920;2023-02-28T08:01:10;10.00;61.50
40368;DHT22;26075;43.320;21.920;2023-02-28T08:06:21;10.00;61.10
40368;DHT22;26075;43.320;21.920;2023-02-28T08:11:22;10.10;82.10
40368;DHT22;26075;43.320;21.920;2023-02-28T08:16:31;9.80;82.60
40368;DHT22;26075;43.320;21.920;2023-02-28T08:32:46;10.20;61.00
40368;DHT22;26075;43.320;21.920;2023-02-28T08:37:49;10.00;59.20
40368;DHT22;26075;43.320;21.920;2023-02-28T08:43:08;10.10;82.20
40368;DHT22;26075;43.320;21.920;2023-02-28T08:48:08;10.10;63.20
40368;DHT22;26075;43.320;21.920;2023-02-28T08:53:09;10.70;63.20
40368;DHT22;26075;43.320;21.920;2023-02-28T08:58:12;10.60;82.10
40368;DHT22;26075;43.320;21.920;2023-02-28T09:13:14;10.40;58.00
40368;DHT22;26075;43.320;21.920;2023-02-28T09:23:59;10.40;58.70
40368;DHT22;26075;43.320;21.920;2023-02-28T09:34:56;10.70;58.90
40368;DHT22;26075;43.320;21.920;2023-02-28T09:39:57;11.10;82.30
40368;DHT22;26075;43.320;21.920;2023-02-28T09:45:00;10.80;62.20
40368;DHT22;26075;43.320;21.920;2023-02-28T09:55:39;10.90;58.40
40368;DHT22;26075;43.320;21.920;2023-02-28T10:11:12;10.60;62.50
40368;DHT22;26075;43.320;21.920;2023-02-28T10:16:21;10.40;62.40
40368;DHT22;26075;43.320;21.920;2023-02-28T10:21:37;10.80;82.50
40368;DHT22;26075;43.320;21.920;2023-02-28T10:26:45;10.80;62.40
40368;DHT22;26075;43.320;21.920;2023-02-28T10:32:00;11.50;62.60
40368;DHT22;26075;43.320;21.920;2023-02-28T10:43:04;10.80;59.10
40368;DHT22;26075;43.320;21.920;2023-02-28T10:48:27;11.00;62.20
40368;DHT22;26075;43.320;21.920;2023-02-28T10:53:51;10.90;82.40
40368;DHT22;26075;43.320;21.920;2023-02-28T11:09:35;11.00;59.20
40368;DHT22;26075;43.320;21.920;2023-02-28T11:15:03;11.00;63.20
40368;DHT22;26075;43.320;21.920;2023-02-28T11:20:22;11.10;59.40
40368;DHT22;26075;43.320;21.920;2023-02-28T11:25:38;11.00;82.80
40368;DHT22;26075;43.320;21.920;2023-02-28T11:30:44;10.90;61.90
40368;DHT22;26075;43.320;21.920;2023-02-28T11:35:48;10.80;63.10
40368;DHT22;26075;43.320;21.920;2023-02-28T11:51:23;10.90;60.20
40368;DHT22;26075;43.320;21.920;2023-02-28T11:56:39;11.20;63.00
40368;DHT22;26075;43.320;21.920;2023-02-28T12:01:59;11.20;58.80
40368;DHT22;26075;43.320;21.920;2023-02-28T12:07:17;11.20;59.00
40368;DHT22;26075;43.320;21.920;2023-02-28T12:17:51;11.20;59.80
40368;DHT22;26075;43.320;21.920;2023-02-28T12:28:24;10.90;63.50
40368;DHT22;26075;43.320;21.920;2023-02-28T12:39:31;11.00;60.60
40368;DHT22;26075;43.320;21.920;2023-02-28T12:45:02;11.00;84.00
40368;DHT22;26075;43.320;21.920;2023-02-28T12:50:10;10.80;64.40
40368;DHT22;26075;43.320;21.920;2023-02-28T13:06:50;11.00;60.50
40368;DHT22;26075;43.320;21.920;2023-02-28T13:12:25;11.30;60.50
40368;DHT22;26075;43.320;21.920;2023-02-28T13:17:27;11.10;63.70
40368;DHT22;26075;43.320;21.920;2023-02-28T13:27:41;11.50;62.50
40368;DHT22;26075;43.320;21.920;2023-02-28T13:32:44;11.30;62.60
40368;DHT22;26075;43.320;21.920;2023-02-28T13:37:47;11.30;64.40
40368;DHT22;26075;43.320;21.920;2023-02-28T13:42:50;11.40;63.60
40368;DHT22;26075;43.320;21.920;2023-02-28T13:47:58;11.30;64.10
40368;DHT22;26075;43.320;21.920;2023-02-28T13:58:53;11.40;64.20
40368;DHT22;26075;43.320;21.920;2023-02-28T14:09:37;11.50;60.20
40368;DHT22;26075;43.320;21.920;2023-02-28T14:19:40;11.80;63.10
40368;DHT22;26075;43.320;21.920;2023-02-28T14:25:09;11.90;63.20
40368;DHT22;26075;43.320;21.920;2023-02-28T14:40:52;11.90;59.50
40368;DHT22;26075;43.320;21.920;2023-02-28T14:46:06;12.10;62.80
40368;DHT22;26075;43.320;21.920;2023-02-28T14:51:06;12.10;62.10
40368;DHT22;26075;43.320;21.920;2023-02-28T14:56:21;12.00;63.40
40368;DHT22;26075;43.320;21.920;2023-02-28T15:01:24;12.10;59.80
40368;DHT22;26075;43.320;21.920;2023-02-28T15:06:25;12.10;62.90
40368;DHT22;26075;43.320;21.920;2023-02-28T15:11:26;12.00;63.20
40368;DHT22;26075;43.320;21.920;2023-02-28T15:16:37;12.20;63.20
40368;DHT22;26075;43.320;21.920;2023-02-28T15:21:43;12.10;62.80
40368;DHT22;26075;43.320;21.920;2023-02-28T15:26:46;12.10;63.50
40368;DHT22;26075;43.320;21.920;2023-02-28T15:32:01;12.20;62.20
40368;DHT22;26075;43.320;21.920;2023-02-28T15:42:33;12.10;63.30
40368;DHT22;26075;43.320;21.920;2023-02-28T15:47:33;12.00;63.10
40368;DHT22;26075;43.320;21.920;2023-02-28T15:52:41;12.00;63.40
40368;DHT22;26075;43.320;21.920;2023-02-28T15:57:46;11.80;63.10
40368;DHT22;26075;43.320;21.920;2023-02-28T16:02:47;11.60;63.30
40368;DHT22;26075;43.320;21.920;2023-02-28T16:07:48;11.70;63.60
40368;DHT22;26075;43.320;21.920;2023-02-28T16:13:08;11.70;63.80
40368;DHT22;26075;43.320;21.920;2023-02-28T16:18:13;11.60;63.70
40368;DHT22;26075;43.320;21.920;2023-02-28T16:23:13;11.60;64.10
40368;DHT22;26075;43.320;21.920;2023-02-28T16:28:30;11.40;63.90
40368;DHT22;26075;43.320;21.920;2023-02-28T16:33:33;11.60;63.00
40368;DHT22;26075;43.320;21.920;2023-02-28T16:38:34;11.60;63.70
40368;DHT22;26075;43.320;21.920;2023-02-28T16:48:35;11.10;59.40
40368;DHT22;26075;43.320;21.920;2023-02-28T16:53:36;11.50;64.10
40368;DHT22;26075;43.320;21.920;2023-02-28T16:58:36;11.40;83.80
40368;DHT22;26075;43.320;21.920;2023-02-28T17:03:37;11.40;64.00
40368;DHT22;26075;43.320;21.920;2023-02-28T17:08:38;11.50;64.20
40368;DHT22;26075;43.320;21.920;2023-02-28T17:13:51;11.50;63.90
40368;DHT22;26075;43.320;21.920;2023-02-28T17:18:53;11.30;64.70
40368;DHT22;26075;43.320;21.920;2023-02-28T17:24:00;11.30;64.10
40368;DHT22;26075;43.320;21.920;2023-02-28T17:29:01;11.50;64.30
40368;DHT22;26075;43.320;21.920;2023-02-28T17:34:02;11.70;83.30
40368;DHT22;26075;43.320;21.920;2023-02-28T17:45:00;12.50;60.20
40368;DHT22;26075;43.320;21.920;2023-02-28T17:55:57;12.50;58.80
40368;DHT22;26075;43.320;21.920;2023-02-28T18:00:58;12.00;82.40
40368;DHT22;26075;43.320;21.920;2023-02-28T18:06:00;12.40;63.70
40368;DHT22;26075;43.320;21.920;2023-02-28T18:11:08;12.10;62.90
40368;DHT22;26075;43.320;21.920;2023-02-28T18:22:14;12.10;59.80
40368;DHT22;26075;43.320;21.920;2023-02-28T18:33:11;8.60;68.30
40368;DHT22;26075;43.320;21.920;2023-02-28T18:50:13;11.80;60.10
40368;DHT22;26075;43.320;21.920;2023-02-28T18:55:14;12.30;82.50
40368;DHT22;26075;43.320;21.920;2023-02-28T19:00:18;12.20;63.00
40368;DHT22;26075;43.320;21.920;2023-02-28T19:05:21;12.00;62.30
40368;DHT22;26075;43.320;21.920;2023-02-28T19:10:45;11.80;63.70
40368;DHT22;26075;43.320;21.920;2023-02-28T19:15:46;11.80;60.40
40368;DHT22;26075;43.320;21.920;2023-02-28T19:20:47;11.90;64.30
40368;DHT22;26075;43.320;21.920;2023-02-28T19:25:48;12.20;63.30
40368;DHT22;26075;43.320;21.920;2023-02-28T19:41:47;12.00;59.50
40368;DHT22;26075;43.320;21.920;2023-02-28T19:52:31;12.80;62.60
40368;DHT22;26075;43.320;21.920;2023-02-28T20:03:18;16.00;57.50
40368;DHT22;26075;43.320;21.920;2023-02-28T20:08:19;17.20;59.40
40368;DHT22;26075;43.320;21.920;2023-02-28T20:13:20;17.70;58.40
40368;DHT22;26075;43.320;21.920;2023-02-28T20:24:09;18.30;54.40
40368;DHT22;26075;43.320;21.920;2023-02-28T20:29:10;18.30;56.90
40368;DHT22;26075;43.320;21.920;2023-02-28T20:34:38;18.60;55.90
40368;DHT22;26075;43.320;21.920;2023-02-28T20:45:50;18.80;52.90
40368;DHT22;26075;43.320;21.920;2023-02-28T20:51:10;18.70;55.30
40368;DHT22;26075;43.320;21.920;2023-02-28T20:56:15;18.80;55.00
40368;DHT22;26075;43.320;21.920;2023-02-28T21:07:21;16.10;54.80
40368;DHT22;26075;43.320;21.920;2023-02-28T21:18:18;14.00;80.90
40368;DHT22;26075;43.320;21.920;2023-02-28T21:23:19;13.50;81.00
40368;DHT22;26075;43.320;21.920;2023-02-28T21:33:20;13.00;60.20
40368;DHT22;26075;43.320;21.920;2023-02-28T21:38:21;13.00;61.40
40368;DHT22;26075;43.320;21.920;2023-02-28T21:43:22;12.90;82.20
40368;DHT22;26075;43.320;21.920;2023-02-28T21:54:19;12.70;58.00
40368;DHT22;26075;43.320;21.920;2023-02-28T21:59:48;12.40;81.40
40368;DHT22;26075;43.320;21.920;2023-02-28T22:04:48;12.40;58.30
40368;DHT22;26075;43.320;21.920;2023-02-28T22:15:46;11.90;81.90
40368;DHT22;26075;43.320;21.920;2023-02-28T22:20:53;12.00;82.00
40368;DHT22;26075;43.320;21.920;2023-02-28T22:25:54;12.00;62.10
40368;DHT22;26075;43.320;21.920;2023-02-28T22:36:52;11.60;82.70
40368;DHT22;26075;43.320;21.920;2023-02-28T22:46:55;11.40;59.90
40368;DHT22;26075;43.320;21.920;2023-02-28T22:51:56;11.40;63.30
40368;DHT22;26075;43.320;21.920;2023-02-28T23:08:01;11.10;58.80
40368;DHT22;26075;43.320;21.920;2023-02-28T23:19:22;11.30;61.90
40368;DHT22;26075;43.320;21.920;2023-02-28T23:30:22;11.20;62.40
40368;DHT22;26075;43.320;21.920;2023-02-28T23:40:24;11.00;59.30
40368;DHT22;26075;43.320;21.920;2023-02-28T23:45:25;11.20;83.60
